Time;durP1;ratioP1;P1;durP2;ratioP2;P2;SDS_P1;SDS_P2;PMS_P1;PMS_P2;Temp;Humidity;BMP_temperature;BMP_pressure;BME280_temperature;BME280_humidity;BME280_pressure;Samples;Min_cycle;Max_cycle;Signal;HPM_P1;HPM_P2
2021/05/20 00:00:06;;;;;;;2.70;1.43;;;13.90;93.30;;;;;;5009575;28;20690;-55
2021/05/20 00:02:33;;;;;;;3.40;1.90;;;13.90;93.50;;;;;;4990373;28;21217;-51
2021/05/20 00:04:59;;;;;;;1.87;1.60;;;13.90;93.40;;;;;;4990394;28;20747;-53
2021/05/20 00:07:26;;;;;;;1.30;1.20;;;13.90;93.50;;;;;;4999413;28;20737;-53
2021/05/20 00:09:53;;;;;;;2.13;1.70;;;13.90;93.40;;;;;;5009759;28;20693;-52
2021/05/20 00:12:19;;;;;;;1.40;1.30;;;13.90;93.40;;;;;;5010095;28;20698;-52
2021/05/20 00:14:46;;;;;;;2.23;1.93;;;13.90;93.40;;;;;;5009868;28;20640;-52
2021/05/20 00:17:14;;;;;;;3.43;2.10;;;13.90;93.40;;;;;;5010031;28;21168;-52
2021/05/20 00:19:41;;;;;;;2.13;1.93;;;13.90;93.20;;;;;;5009986;28;21067;-53
2021/05/20 00:22:07;;;;;;;2.87;1.53;;;13.90;93.30;;;;;;5013011;28;20627;-53
2021/05/20 00:24:34;;;;;;;1.87;1.70;;;13.90;93.40;;;;;;5013965;28;20694;-53
2021/05/20 00:27:01;;;;;;;1.63;1.53;;;13.90;93.40;;;;;;4992116;28;20656;-53
2021/05/20 00:29:27;;;;;;;3.30;1.93;;;13.90;93.40;;;;;;4993727;28;20687;-52
2021/05/20 00:31:54;;;;;;;1.70;1.60;;;13.80;93.30;;;;;;5001973;28;20693;-52
2021/05/20 00:34:22;;;;;;;2.07;1.80;;;13.80;93.30;;;;;;5013624;28;20632;-52
2021/05/20 00:36:48;;;;;;;1.97;1.70;;;13.80;93.20;;;;;;5012539;28;20664;-52
2021/05/20 00:39:15;;;;;;;1.43;1.33;;;13.70;93.40;;;;;;5013268;28;20631;-52
2021/05/20 00:41:42;;;;;;;3.53;1.57;;;13.70;93.60;;;;;;5011745;28;20643;-52
2021/05/20 00:44:09;;;;;;;2.57;2.07;;;13.70;93.60;;;;;;5012862;28;20965;-52
2021/05/20 00:46:35;;;;;;;1.80;1.60;;;13.70;93.60;;;;;;5012591;28;20729;-52
2021/05/20 00:49:09;;;;;;;1.50;1.40;;;13.70;93.70;;;;;;5012542;28;20739;-53
2021/05/20 00:51:37;;;;;;;3.10;1.50;;;13.70;93.50;;;;;;5012858;28;20632;-53
2021/05/20 00:54:05;;;;;;;1.73;1.30;;;13.60;93.50;;;;;;5012734;28;20965;-53
2021/05/20 00:56:31;;;;;;;1.77;1.63;;;13.60;93.70;;;;;;5013951;28;21320;-53
2021/05/20 00:58:58;;;;;;;2.30;2.10;;;13.60;93.60;;;;;;5013231;28;20663;-53
2021/05/20 01:01:25;;;;;;;1.70;1.60;;;13.60;93.50;;;;;;5014547;28;20619;-53
2021/05/20 01:03:51;;;;;;;2.20;2.00;;;13.60;93.40;;;;;;5015789;28;20693;-53
2021/05/20 01:06:18;;;;;;;2.63;2.00;;;13.60;93.50;;;;;;5013567;28;20655;-53
2021/05/20 01:08:46;;;;;;;2.10;1.80;;;13.50;93.40;;;;;;5011697;28;21232;-53
2021/05/20 01:11:12;;;;;;;2.63;1.93;;;13.60;93.50;;;;;;5008754;28;21242;-52
2021/05/20 01:13:39;;;;;;;2.73;2.10;;;13.60;93.40;;;;;;5010218;28;20723;-52
2021/05/20 01:16:10;;;;;;;2.23;1.80;;;13.60;93.50;;;;;;5010515;28;20710;-52
2021/05/20 01:18:36;;;;;;;2.37;1.70;;;13.50;93.60;;;;;;5008722;28;20636;-53
2021/05/20 01:21:04;;;;;;;2.83;2.60;;;13.50;93.60;;;;;;5010552;28;20678;-52
2021/05/20 01:23:31;;;;;;;1.97;1.87;;;13.50;93.70;;;;;;5009877;28;21040;-54
2021/05/20 01:26:01;;;;;;;2.13;2.03;;;13.60;93.80;;;;;;5008201;28;20664;-53
2021/05/20 01:28:30;;;;;;;2.77;1.83;;;13.50;93.80;;;;;;5010225;28;20666;-52
2021/05/20 01:30:57;;;;;;;1.90;1.80;;;13.50;93.90;;;;;;5012000;28;20632;-52
2021/05/20 01:33:23;;;;;;;3.00;1.70;;;13.50;94.10;;;;;;5011092;28;20690;-53
2021/05/20 01:35:50;;;;;;;2.30;2.00;;;13.50;94.20;;;;;;5012175;28;20729;-51
2021/05/20 01:41:14;;;;;;;2.50;2.30;;;13.40;94.20;;;;;;5149105;27;20749;-53
2021/05/20 01:43:41;;;;;;;2.43;2.23;;;13.40;94.40;;;;;;5148353;27;20656;-53
2021/05/20 01:46:08;;;;;;;3.20;2.83;;;13.40;94.50;;;;;;5145630;27;20677;-53
2021/05/20 01:48:36;;;;;;;2.47;1.90;;;13.40;94.50;;;;;;5127165;27;20615;-53
2021/05/20 01:51:04;;;;;;;4.30;2.20;;;13.40;94.60;;;;;;5128588;27;20607;-53
2021/05/20 01:53:31;;;;;;;3.07;2.77;;;13.30;94.60;;;;;;5128184;27;20622;-52
2021/05/20 01:55:58;;;;;;;3.23;2.93;;;13.40;94.70;;;;;;5128678;27;21147;-52
2021/05/20 01:58:25;;;;;;;3.70;3.20;;;13.30;94.70;;;;;;5128085;27;20666;-52
2021/05/20 02:00:52;;;;;;;2.53;2.33;;;13.30;94.70;;;;;;5128185;27;20721;-51
2021/05/20 02:03:19;;;;;;;2.73;2.50;;;13.30;94.80;;;;;;5127645;27;20619;-51
2021/05/20 02:05:46;;;;;;;3.30;2.40;;;13.30;94.90;;;;;;5127633;27;20655;-52
2021/05/20 02:08:13;;;;;;;4.60;2.33;;;13.30;94.90;;;;;;5128538;27;20630;-52
2021/05/20 02:10:39;;;;;;;2.80;2.27;;;13.30;94.90;;;;;;5127932;27;20652;-52
2021/05/20 02:13:06;;;;;;;2.80;2.00;;;13.40;94.90;;;;;;5144195;27;20618;-52
2021/05/20 02:15:34;;;;;;;3.00;2.80;;;13.40;94.80;;;;;;5148620;27;20649;-52
2021/05/20 02:18:00;;;;;;;1.97;1.77;;;13.40;94.70;;;;;;5123354;27;20715;-52
2021/05/20 02:20:27;;;;;;;4.20;3.50;;;13.40;94.70;;;;;;5115885;28;20762;-53
2021/05/20 02:22:54;;;;;;;3.00;2.70;;;13.40;94.60;;;;;;5137851;27;20659;-53
2021/05/20 02:25:20;;;;;;;2.30;2.10;;;13.40;94.70;;;;;;5148214;27;20698;-53
2021/05/20 02:27:47;;;;;;;16.33;2.50;;;13.40;94.80;;;;;;5147784;27;20633;-53
2021/05/20 02:30:15;;;;;;;2.63;2.30;;;13.40;94.70;;;;;;5147908;27;20713;-53
2021/05/20 02:32:42;;;;;;;2.73;1.80;;;13.40;94.70;;;;;;5139659;27;20638;-52
2021/05/20 02:35:10;;;;;;;2.50;2.30;;;13.40;94.70;;;;;;5127126;27;20666;-53
2021/05/20 02:37:37;;;;;;;3.10;2.37;;;13.40;94.70;;;;;;5133167;27;20634;-52
2021/05/20 02:40:05;;;;;;;2.83;2.53;;;13.40;94.60;;;;;;5126965;27;20670;-53
2021/05/20 02:42:32;;;;;;;2.57;2.30;;;13.40;94.70;;;;;;5127154;27;21034;-52
2021/05/20 02:44:58;;;;;;;3.00;2.37;;;13.40;94.70;;;;;;5127385;27;20715;-52
2021/05/20 02:47:25;;;;;;;2.13;1.90;;;13.40;94.70;;;;;;5127261;27;20635;-52
2021/05/20 02:49:53;;;;;;;2.23;2.03;;;13.40;94.90;;;;;;5127196;27;20760;-52
2021/05/20 02:52:19;;;;;;;2.23;2.13;;;13.40;94.50;;;;;;5123045;27;21147;-52
2021/05/20 02:54:46;;;;;;;4.13;2.73;;;13.40;94.60;;;;;;5134010;27;20637;-52
2021/05/20 02:57:13;;;;;;;2.77;2.40;;;13.30;94.60;;;;;;5133852;27;20623;-54
2021/05/20 02:59:40;;;;;;;3.23;1.90;;;13.40;94.70;;;;;;5133814;27;20706;-52
2021/05/20 03:02:07;;;;;;;2.70;2.50;;;13.40;94.70;;;;;;5129495;27;21151;-52
2021/05/20 03:04:33;;;;;;;2.83;2.47;;;13.40;94.60;;;;;;5113238;27;20619;-52
2021/05/20 03:07:01;;;;;;;2.47;2.27;;;13.40;94.90;;;;;;5113763;27;20714;-52
2021/05/20 03:09:28;;;;;;;3.60;2.57;;;13.40;94.40;;;;;;5111368;28;20700;-52
2021/05/20 03:11:56;;;;;;;3.00;2.70;;;13.40;94.40;;;;;;5115472;27;20684;-52
2021/05/20 03:14:23;;;;;;;2.20;2.00;;;13.50;94.40;;;;;;5108268;28;20629;-54
2021/05/20 03:16:50;;;;;;;5.20;2.27;;;13.50;94.40;;;;;;5110561;28;20647;-53
2021/05/20 03:19:17;;;;;;;2.53;2.33;;;13.50;94.40;;;;;;5110309;28;20688;-54
2021/05/20 03:21:43;;;;;;;3.20;2.90;;;13.40;94.30;;;;;;5109460;28;20703;-54
2021/05/20 03:24:11;;;;;;;4.10;3.30;;;13.40;94.30;;;;;;5108735;28;20744;-55
2021/05/20 03:26:38;;;;;;;2.90;2.50;;;13.40;94.20;;;;;;5110453;28;20646;-54
2021/05/20 03:29:05;;;;;;;3.27;2.70;;;13.40;94.30;;;;;;5112300;27;20675;-53
2021/05/20 03:31:32;;;;;;;2.67;2.47;;;13.40;94.40;;;;;;5113110;27;21183;-53
2021/05/20 03:33:58;;;;;;;4.20;3.20;;;13.40;94.40;;;;;;5113078;27;20695;-54
2021/05/20 03:36:25;;;;;;;4.50;3.17;;;13.40;94.30;;;;;;5116249;27;20747;-53
2021/05/20 03:38:52;;;;;;;3.07;2.10;;;13.40;94.40;;;;;;5132580;27;20671;-53
2021/05/20 03:41:19;;;;;;;2.87;2.53;;;13.40;94.50;;;;;;5133082;27;20654;-53
2021/05/20 03:43:46;;;;;;;2.80;2.60;;;13.40;94.50;;;;;;5131996;27;20643;-53
2021/05/20 03:46:13;;;;;;;2.80;2.60;;;13.40;94.50;;;;;;5115197;27;20655;-53
2021/05/20 03:48:40;;;;;;;4.10;3.30;;;13.40;94.40;;;;;;5115748;27;20627;-54
2021/05/20 03:51:06;;;;;;;5.57;2.73;;;13.40;94.40;;;;;;5112187;28;20623;-54
2021/05/20 03:53:34;;;;;;;4.97;2.67;;;13.40;94.80;;;;;;5112184;28;20680;-54
2021/05/20 03:56:01;;;;;;;3.43;2.87;;;13.40;94.40;;;;;;5111427;27;20666;-54
2021/05/20 03:58:29;;;;;;;2.53;2.33;;;13.50;94.50;;;;;;5130205;27;20671;-53
2021/05/20 04:00:55;;;;;;;2.83;2.63;;;13.40;94.40;;;;;;5111530;27;20683;-53
2021/05/20 04:03:23;;;;;;;2.47;2.20;;;13.40;94.50;;;;;;5111169;28;20631;-54
2021/05/20 04:05:53;;;;;;;3.33;3.03;;;13.40;94.60;;;;;;5111716;28;20809;-54
2021/05/20 04:08:20;;;;;;;2.80;2.57;;;13.40;94.70;;;;;;5111671;28;20623;-55
2021/05/20 04:10:47;;;;;;;2.43;2.23;;;13.40;94.80;;;;;;5113370;27;20631;-54
2021/05/20 04:13:14;;;;;;;3.10;2.83;;;13.40;94.70;;;;;;5124302;27;21263;-54
2021/05/20 04:15:41;;;;;;;3.53;3.20;;;13.40;95.00;;;;;;5132278;27;20703;-54
2021/05/20 04:18:08;;;;;;;3.07;2.60;;;13.40;94.70;;;;;;5119573;27;20985;-53
2021/05/20 04:20:35;;;;;;;3.73;3.43;;;13.50;94.60;;;;;;5106653;27;20656;-53
2021/05/20 04:23:02;;;;;;;2.97;2.60;;;13.50;94.60;;;;;;5107282;27;20779;-53
2021/05/20 04:25:29;;;;;;;2.73;2.53;;;13.40;94.50;;;;;;5132368;27;20642;-53
2021/05/20 04:27:55;;;;;;;4.37;2.20;;;13.40;94.50;;;;;;5123101;27;21030;-52
2021/05/20 04:30:23;;;;;;;4.10;2.53;;;13.40;94.60;;;;;;5111839;28;20634;-53
2021/05/20 04:32:51;;;;;;;2.87;2.67;;;13.40;94.70;;;;;;5118876;27;20639;-54
2021/05/20 04:35:17;;;;;;;3.23;2.93;;;13.30;94.80;;;;;;5131541;27;20657;-53
2021/05/20 04:37:44;;;;;;;4.90;3.07;;;13.30;94.80;;;;;;5120558;27;20668;-52
2021/05/20 04:40:14;;;;;;;4.03;2.93;;;13.40;95.00;;;;;;5110859;28;20688;-53
2021/05/20 04:42:41;;;;;;;3.63;2.93;;;13.30;94.90;;;;;;5111142;28;20684;-53
2021/05/20 04:45:09;;;;;;;7.30;3.93;;;13.30;94.90;;;;;;5111314;28;20640;-53
2021/05/20 04:47:35;;;;;;;4.60;2.73;;;13.30;94.90;;;;;;5110976;28;20631;-52
2021/05/20 04:50:04;;;;;;;3.50;2.80;;;13.30;94.90;;;;;;5111153;28;20684;-54
2021/05/20 04:52:30;;;;;;;3.20;2.90;;;13.30;95.00;;;;;;5110714;28;20662;-53
2021/05/20 04:54:57;;;;;;;2.63;2.43;;;13.30;95.10;;;;;;5110486;28;20647;-52
2021/05/20 04:57:24;;;;;;;3.17;2.87;;;13.40;95.10;;;;;;5110928;28;20628;-53
2021/05/20 04:59:50;;;;;;;3.47;2.80;;;13.30;95.00;;;;;;5110266;28;20684;-53
2021/05/20 05:02:17;;;;;;;3.60;3.20;;;13.30;95.00;;;;;;5110429;28;20851;-53
2021/05/20 05:04:44;;;;;;;4.10;2.83;;;13.40;95.10;;;;;;5110980;28;20676;-54
2021/05/20 05:07:11;;;;;;;7.20;3.33;;;13.30;95.00;;;;;;5111569;27;20971;-53
2021/05/20 05:09:38;;;;;;;2.93;2.73;;;13.40;95.10;;;;;;5126271;27;20971;-55
2021/05/20 05:12:06;;;;;;;3.63;3.03;;;13.40;95.20;;;;;;5129470;27;20626;-54
2021/05/20 05:14:33;;;;;;;2.93;2.67;;;13.30;95.10;;;;;;5117366;27;21019;-54
2021/05/20 05:17:00;;;;;;;9.50;3.50;;;13.30;95.00;;;;;;5109926;28;20671;-53
2021/05/20 05:19:26;;;;;;;3.20;2.90;;;13.10;95.30;;;;;;5109174;28;20628;-54
2021/05/20 05:21:53;;;;;;;2.90;2.60;;;13.10;95.60;;;;;;5110292;28;20662;-55
2021/05/20 05:24:21;;;;;;;3.40;2.83;;;13.00;95.70;;;;;;5110524;28;20677;-54
2021/05/20 05:26:48;;;;;;;3.20;2.90;;;13.00;95.80;;;;;;5110218;28;20739;-52
2021/05/20 05:29:14;;;;;;;3.87;3.40;;;13.00;95.90;;;;;;5109322;28;20642;-54
2021/05/20 05:31:41;;;;;;;3.70;3.23;;;13.00;96.10;;;;;;5109843;28;20648;-55
2021/05/20 05:34:08;;;;;;;3.77;3.47;;;12.90;96.10;;;;;;5110218;28;20629;-54
2021/05/20 05:36:35;;;;;;;4.20;3.87;;;13.00;96.20;;;;;;5121306;28;20737;-55
2021/05/20 05:39:01;;;;;;;3.87;3.47;;;13.00;96.30;;;;;;5130171;27;21004;-54
2021/05/20 05:41:29;;;;;;;4.73;3.17;;;12.90;96.20;;;;;;5130727;27;20658;-52
2021/05/20 05:43:56;;;;;;;4.60;3.73;;;13.00;96.80;;;;;;5116875;27;20651;-53
2021/05/20 05:46:23;;;;;;;4.20;3.77;;;13.00;96.30;;;;;;5109195;28;21172;-53
2021/05/20 05:48:50;;;;;;;3.13;2.80;;;13.10;96.30;;;;;;5109366;28;20622;-55
2021/05/20 05:51:18;;;;;;;2.63;2.43;;;13.10;96.10;;;;;;5109424;28;20616;-53
2021/05/20 05:53:45;;;;;;;3.50;2.43;;;13.10;96.10;;;;;;5107281;28;20643;-54
2021/05/20 05:56:12;;;;;;;3.30;3.00;;;13.20;95.90;;;;;;5109555;28;20651;-55
2021/05/20 05:58:39;;;;;;;4.03;3.03;;;13.20;95.90;;;;;;5110403;28;21152;-53
2021/05/20 06:01:06;;;;;;;5.40;3.03;;;13.20;96.00;;;;;;5109927;28;21232;-54
2021/05/20 06:03:33;;;;;;;4.20;3.80;;;13.20;96.10;;;;;;5110198;28;20608;-53
2021/05/20 06:06:00;;;;;;;5.97;3.20;;;13.20;96.10;;;;;;5109108;28;20659;-54
2021/05/20 06:08:27;;;;;;;3.47;2.60;;;13.30;96.00;;;;;;5107693;28;20671;-52
2021/05/20 06:10:53;;;;;;;2.90;2.60;;;13.30;95.60;;;;;;5109230;28;20615;-54
2021/05/20 06:13:20;;;;;;;5.33;2.90;;;13.30;95.50;;;;;;5110024;28;20627;-56
2021/05/20 06:15:48;;;;;;;5.07;3.17;;;13.30;95.60;;;;;;5109689;28;20647;-53
2021/05/20 06:18:15;;;;;;;2.27;2.07;;;13.30;95.60;;;;;;5103141;28;20661;-54
2021/05/20 06:20:42;;;;;;;2.90;2.70;;;13.30;95.70;;;;;;5109538;28;20655;-55
2021/05/20 06:23:08;;;;;;;2.30;2.10;;;13.40;95.60;;;;;;5110110;28;20651;-55
2021/05/20 06:25:35;;;;;;;2.80;2.60;;;13.40;95.40;;;;;;5110122;28;21239;-54
2021/05/20 06:28:05;;;;;;;3.20;2.90;;;13.50;95.40;;;;;;5113038;28;20994;-53
2021/05/20 06:30:32;;;;;;;3.03;2.40;;;13.50;95.10;;;;;;5113499;28;20623;-54
2021/05/20 06:33:00;;;;;;;3.10;2.10;;;13.50;95.10;;;;;;5112686;28;20692;-54
2021/05/20 06:35:26;;;;;;;3.10;2.80;;;13.60;95.00;;;;;;5113806;28;20763;-53
2021/05/20 06:37:53;;;;;;;2.10;2.00;;;13.60;95.30;;;;;;5113544;28;20687;-54
2021/05/20 06:40:20;;;;;;;3.30;3.00;;;13.70;94.60;;;;;;5113267;28;20663;-53
2021/05/20 06:42:47;;;;;;;2.73;2.53;;;13.70;94.30;;;;;;5113531;28;21174;-53
2021/05/20 06:45:14;;;;;;;7.23;2.73;;;13.70;94.00;;;;;;5113109;28;20651;-53
2021/05/20 06:47:41;;;;;;;2.87;2.43;;;13.70;94.10;;;;;;5112242;28;21207;-53
2021/05/20 06:50:09;;;;;;;2.50;2.30;;;13.80;94.10;;;;;;5113553;28;20692;-53
2021/05/20 06:52:37;;;;;;;2.63;2.43;;;13.90;94.10;;;;;;5113226;28;20650;-52
2021/05/20 06:55:04;;;;;;;3.30;3.00;;;14.00;93.50;;;;;;5112852;28;20655;-52
2021/05/20 06:59:56;;;;;;;2.50;2.20;;;14.00;93.20;;;;;;5112749;28;20663;-53
2021/05/20 07:00:18;;;;;;;5.63;3.37;;;14.20;93.00;;;;;;5112813;28;20614;-53
2021/05/20 07:02:46;;;;;;;3.93;3.63;;;14.30;92.70;;;;;;5112905;28;20641;-53
2021/05/20 07:05:14;;;;;;;5.07;4.67;;;14.30;92.40;;;;;;5112854;28;20647;-53
2021/05/20 07:07:41;;;;;;;5.40;4.97;;;14.40;92.10;;;;;;5112313;27;20689;-53
2021/05/20 07:10:09;;;;;;;5.30;4.90;;;14.30;91.80;;;;;;5112853;28;20696;-52
2021/05/20 07:12:35;;;;;;;6.40;5.90;;;14.40;92.10;;;;;;5112894;28;20639;-52
2021/05/20 07:15:03;;;;;;;8.03;7.37;;;14.40;91.80;;;;;;5112588;28;21256;-52
2021/05/20 07:17:30;;;;;;;7.80;7.13;;;14.40;91.20;;;;;;5112041;28;20763;-53
2021/05/20 07:19:56;;;;;;;7.83;7.17;;;14.50;91.20;;;;;;5112631;28;21058;-53
2021/05/20 07:22:24;;;;;;;8.60;7.67;;;14.50;91.30;;;;;;5112486;28;20712;-53
2021/05/20 07:24:51;;;;;;;8.33;7.73;;;14.70;91.40;;;;;;5112388;28;20631;-54
2021/05/20 07:27:18;;;;;;;9.60;7.00;;;15.00;91.00;;;;;;5112756;28;20675;-54
2021/05/20 07:29:45;;;;;;;8.57;7.87;;;15.20;90.50;;;;;;5112733;28;20994;-53
2021/05/20 07:32:17;;;;;;;9.47;7.07;;;15.50;90.10;;;;;;5112760;28;20623;-53
2021/05/20 07:34:44;;;;;;;8.23;7.03;;;15.60;88.40;;;;;;5112996;28;20684;-53
2021/05/20 07:37:10;;;;;;;8.23;7.53;;;15.60;85.20;;;;;;5111960;28;20688;-53
2021/05/20 07:39:38;;;;;;;7.20;6.50;;;15.40;86.30;;;;;;5111942;28;20685;-52
2021/05/20 07:42:05;;;;;;;8.30;7.60;;;15.20;88.00;;;;;;5111824;28;20655;-50
2021/05/20 07:44:34;;;;;;;7.70;7.10;;;15.10;88.90;;;;;;5111026;28;20673;-50
2021/05/20 07:47:01;;;;;;;7.87;7.20;;;15.20;89.80;;;;;;5111685;28;21304;-50
2021/05/20 07:49:28;;;;;;;7.60;6.90;;;15.30;89.20;;;;;;5090861;28;20672;-50
2021/05/20 07:51:55;;;;;;;6.83;6.23;;;15.40;87.90;;;;;;5090576;28;20696;-51
2021/05/20 07:54:21;;;;;;;9.00;8.13;;;15.40;87.60;;;;;;5090780;28;20636;-51
2021/05/20 07:56:49;;;;;;;9.10;6.60;;;15.50;88.00;;;;;;5090456;28;20709;-51
2021/05/20 07:59:16;;;;;;;9.27;8.40;;;15.60;86.50;;;;;;5090677;28;20685;-52
2021/05/20 08:01:51;;;;;;;7.77;7.07;;;15.60;86.00;;;;;;5089717;28;20652;-52
2021/05/20 08:04:19;;;;;;;9.00;7.20;;;15.60;86.30;;;;;;5090415;28;20620;-52
2021/05/20 08:06:53;;;;;;;10.37;9.37;;;15.70;87.20;;;;;;5099099;27;21014;-50
2021/05/20 08:09:26;;;;;;;10.30;9.40;;;15.60;84.20;;;;;;5090643;27;20621;-51
2021/05/20 08:11:54;;;;;;;9.40;8.50;;;15.50;84.60;;;;;;5090630;28;20693;-54
2021/05/20 08:14:20;;;;;;;10.60;9.60;;;15.30;84.10;;;;;;5101685;27;20980;-54
2021/05/20 08:16:47;;;;;;;8.93;8.13;;;15.20;83.70;;;;;;5095970;27;20670;-50
2021/05/20 08:19:14;;;;;;;10.23;9.37;;;15.00;82.80;;;;;;5107007;28;20708;-50
2021/05/20 08:21:41;;;;;;;7.40;6.70;;;15.00;84.10;;;;;;5110600;28;20722;-49
2021/05/20 08:24:08;;;;;;;7.60;7.00;;;14.90;84.00;;;;;;5112987;27;20616;-48
2021/05/20 08:26:35;;;;;;;9.33;7.53;;;14.80;84.30;;;;;;5110252;28;20662;-49
2021/05/20 08:29:03;;;;;;;6.70;6.20;;;14.80;84.90;;;;;;5110029;27;21050;-50
2021/05/20 08:31:32;;;;;;;8.50;7.80;;;14.90;85.30;;;;;;5110437;27;20764;-50
2021/05/20 08:33:59;;;;;;;7.90;7.20;;;15.00;85.60;;;;;;5110613;28;20627;-49
2021/05/20 08:36:25;;;;;;;8.50;7.80;;;15.10;85.10;;;;;;5109952;28;20676;-48
2021/05/20 08:38:52;;;;;;;8.17;7.57;;;15.20;83.10;;;;;;5109734;28;20627;-49
2021/05/20 08:41:20;;;;;;;6.80;6.17;;;15.20;82.30;;;;;;5110931;27;20652;-50
2021/05/20 08:43:47;;;;;;;7.00;6.30;;;15.30;82.30;;;;;;5090397;28;21021;-50
2021/05/20 08:46:21;;;;;;;7.73;7.03;;;15.40;81.80;;;;;;5090115;28;20713;-50
2021/05/20 08:48:48;;;;;;;6.63;6.13;;;15.40;81.40;;;;;;5089304;28;20628;-50
2021/05/20 08:51:15;;;;;;;7.00;6.50;;;15.50;81.80;;;;;;5089602;28;20693;-49
2021/05/20 08:53:41;;;;;;;8.60;7.80;;;15.60;80.90;;;;;;5105273;28;21029;-52
2021/05/20 08:56:11;;;;;;;9.03;7.53;;;15.70;80.30;;;;;;5109638;28;21224;-52
2021/05/20 08:58:37;;;;;;;8.83;8.03;;;15.70;81.10;;;;;;5109954;28;20918;-52
2021/05/20 09:01:04;;;;;;;7.63;6.93;;;15.80;80.90;;;;;;5110077;28;20706;-54
2021/05/20 09:03:32;;;;;;;6.60;6.10;;;16.00;80.80;;;;;;5109737;28;20623;-50
2021/05/20 09:06:04;;;;;;;7.00;6.50;;;16.20;80.80;;;;;;5110079;28;20643;-52
2021/05/20 09:08:32;;;;;;;6.70;5.17;;;16.40;78.00;;;;;;5110330;28;20616;-52
2021/05/20 09:10:59;;;;;;;6.93;5.90;;;16.50;77.30;;;;;;5110182;28;20792;-52
2021/05/20 09:13:26;;;;;;;5.90;5.50;;;16.70;77.80;;;;;;5110481;27;20680;-52
2021/05/20 09:15:53;;;;;;;4.67;4.27;;;17.10;76.80;;;;;;5106611;27;20656;-51
2021/05/20 09:18:21;;;;;;;6.20;5.70;;;17.40;74.40;;;;;;5094303;28;20639;-52
2021/05/20 09:20:50;;;;;;;5.67;5.17;;;17.60;71.70;;;;;;5110200;28;20676;-50
2021/05/20 09:23:18;;;;;;;6.27;5.77;;;17.50;70.90;;;;;;5110060;28;20652;-51
2021/05/20 09:25:45;;;;;;;4.53;4.23;;;17.50;70.60;;;;;;5110264;28;20999;-49
2021/05/20 09:28:13;;;;;;;4.93;4.63;;;17.70;70.50;;;;;;5109421;28;20623;-50
2021/05/20 09:30:40;;;;;;;5.97;5.43;;;17.90;68.30;;;;;;5110412;28;20623;-50
2021/05/20 09:33:08;;;;;;;3.60;3.40;;;18.10;67.30;;;;;;5109833;28;20704;-50
2021/05/20 09:35:36;;;;;;;4.73;4.37;;;18.40;63.00;;;;;;5109601;28;20652;-50
2021/05/20 09:38:05;;;;;;;5.37;4.40;;;18.50;61.90;;;;;;5109533;28;20750;-52
2021/05/20 09:40:35;;;;;;;4.17;3.87;;;18.80;61.70;;;;;;5109778;28;20699;-48
2021/05/20 09:43:13;;;;;;;4.90;4.10;;;19.10;59.30;;;;;;5109375;28;20658;-50
2021/05/20 09:45:40;;;;;;;4.13;3.83;;;19.00;58.50;;;;;;5109528;28;20737;-49
2021/05/20 09:48:08;;;;;;;5.13;4.73;;;18.60;59.20;;;;;;5108477;28;20634;-49
2021/05/20 09:50:40;;;;;;;5.37;4.97;;;18.30;60.40;;;;;;5107973;28;21229;-49
2021/05/20 09:53:12;;;;;;;4.77;4.10;;;18.20;62.40;;;;;;5109410;28;20623;-49
2021/05/20 09:55:47;;;;;;;4.70;4.40;;;18.20;61.10;;;;;;5109612;28;20728;-49
2021/05/20 09:58:14;;;;;;;5.20;4.80;;;18.20;61.30;;;;;;5109296;28;20634;-50
2021/05/20 10:00:41;;;;;;;4.27;3.87;;;18.20;60.00;;;;;;5109214;28;21148;-49
2021/05/20 10:03:09;;;;;;;6.10;5.57;;;18.20;59.70;;;;;;5112959;28;20671;-49
2021/05/20 10:05:36;;;;;;;5.17;4.67;;;18.10;59.90;;;;;;5113113;28;20658;-49
2021/05/20 10:08:04;;;;;;;4.10;3.80;;;17.90;59.90;;;;;;5112934;28;20687;-49
2021/05/20 10:10:34;;;;;;;5.17;4.80;;;17.90;60.50;;;;;;5113269;28;21152;-51
2021/05/20 10:13:03;;;;;;;4.33;4.03;;;18.10;61.20;;;;;;5113017;28;21373;-50
2021/05/20 10:15:29;;;;;;;4.00;3.70;;;18.40;59.10;;;;;;5122524;27;20655;-50
2021/05/20 10:17:56;;;;;;;5.43;4.93;;;18.80;59.20;;;;;;5113062;28;20627;-50
2021/05/20 10:20:23;;;;;;;4.50;4.20;;;19.20;58.30;;;;;;5112788;27;20731;-51
2021/05/20 10:22:50;;;;;;;4.97;4.67;;;19.40;56.80;;;;;;5112925;28;20692;-50
2021/05/20 10:25:18;;;;;;;3.77;3.50;;;19.20;56.70;;;;;;5112903;28;21292;-53
2021/05/20 10:27:45;;;;;;;3.67;3.37;;;19.20;56.90;;;;;;5112874;28;20653;-53
2021/05/20 10:30:13;;;;;;;9.77;4.83;;;19.40;56.50;;;;;;5113021;28;20683;-53
2021/05/20 10:32:40;;;;;;;3.10;2.80;;;19.30;55.10;;;;;;5112755;28;20630;-52
2021/05/20 10:35:09;;;;;;;3.40;3.20;;;19.00;55.90;;;;;;5112606;27;20776;-54
2021/05/20 10:37:39;;;;;;;4.70;4.33;;;18.80;56.90;;;;;;5111924;28;20692;-54
2021/05/20 10:40:27;;;;;;;6.20;3.70;;;18.60;56.70;;;;;;5112177;27;20652;-54
2021/05/20 10:43:08;;;;;;;3.87;3.53;;;18.50;56.90;;;;;;5112732;28;20708;-53
2021/05/20 10:45:35;;;;;;;3.53;3.23;;;18.60;57.60;;;;;;5113236;28;20654;-53
2021/05/20 10:48:23;;;;;;;3.43;3.13;;;19.00;57.80;;;;;;5111092;28;20611;-50
2021/05/20 10:51:21;;;;;;;3.40;3.20;;;19.40;57.20;;;;;;5112956;28;20981;-52
2021/05/20 10:54:13;;;;;;;3.30;3.07;;;19.50;54.90;;;;;;5113205;28;20993;-52
2021/05/20 10:56:55;;;;;;;3.10;2.90;;;19.10;54.50;;;;;;5112798;27;20643;-51
2021/05/20 10:59:44;;;;;;;3.80;3.50;;;19.00;55.10;;;;;;5112904;28;20696;-51
2021/05/20 11:02:39;;;;;;;3.43;3.23;;;18.90;56.00;;;;;;5111006;28;20651;-51
2021/05/20 11:05:25;;;;;;;3.73;2.70;;;18.80;56.60;;;;;;5113251;28;20655;-51
2021/05/20 11:07:52;;;;;;;5.07;3.67;;;19.20;54.60;;;;;;5112088;28;20996;-54
2021/05/20 11:10:21;;;;;;;3.30;2.50;;;19.50;53.70;;;;;;5112323;28;20627;-54
2021/05/20 11:12:54;;;;;;;3.10;2.90;;;19.50;54.00;;;;;;5111749;28;20989;-54
2021/05/20 11:15:23;;;;;;;2.60;2.40;;;19.40;54.90;;;;;;5121718;27;20708;-52
2021/05/20 11:17:50;;;;;;;3.60;1.70;;;19.40;53.30;;;;;;5111439;28;21163;-53
2021/05/20 11:20:42;;;;;;;2.50;1.80;;;19.30;53.80;;;;;;5112471;28;21073;-54
2021/05/20 11:23:25;;;;;;;3.10;2.47;;;19.30;53.40;;;;;;5111871;28;20655;-52
2021/05/20 11:26:03;;;;;;;4.47;3.20;;;19.50;50.40;;;;;;5111606;28;20651;-52
2021/05/20 11:28:30;;;;;;;6.70;4.53;;;19.80;50.30;;;;;;5111066;28;20983;-52
2021/05/20 11:31:00;;;;;;;3.70;2.73;;;20.20;49.40;;;;;;5110562;28;20619;-52
2021/05/20 11:33:30;;;;;;;1.90;1.77;;;20.40;48.10;;;;;;5112035;28;20627;-52
2021/05/20 11:36:10;;;;;;;1.60;1.50;;;20.60;48.40;;;;;;5111841;28;20700;-51
2021/05/20 11:38:37;;;;;;;1.97;1.87;;;20.80;45.70;;;;;;5112098;28;20627;-51
2021/05/20 11:41:14;;;;;;;2.70;2.30;;;20.80;45.60;;;;;;5110264;28;21179;-52
2021/05/20 11:43:41;;;;;;;2.60;2.40;;;20.50;46.30;;;;;;5092590;28;20624;-52
2021/05/20 11:46:25;;;;;;;2.17;2.07;;;20.40;47.40;;;;;;5092980;28;20656;-52
2021/05/20 11:49:04;;;;;;;3.10;2.60;;;20.50;47.50;;;;;;5110490;28;20620;-51
2021/05/20 11:51:48;;;;;;;3.50;3.20;;;20.50;47.20;;;;;;5113818;28;20668;-51
2021/05/20 11:54:15;;;;;;;3.10;2.80;;;20.10;47.80;;;;;;5113101;28;20631;-51
2021/05/20 11:56:44;;;;;;;2.80;2.60;;;19.90;48.80;;;;;;5113471;28;21073;-53
2021/05/20 11:59:11;;;;;;;2.20;2.10;;;19.90;48.90;;;;;;5113788;28;21008;-51
2021/05/20 12:01:41;;;;;;;3.03;2.83;;;19.70;47.10;;;;;;5114101;28;20659;-52
2021/05/20 12:04:07;;;;;;;3.73;3.43;;;19.70;48.10;;;;;;5113691;28;20627;-52
2021/05/20 12:06:35;;;;;;;3.60;3.30;;;19.70;49.20;;;;;;5113259;28;20695;-52
2021/05/20 12:09:12;;;;;;;3.07;2.87;;;19.80;48.70;;;;;;5112430;28;20623;-52
2021/05/20 12:11:40;;;;;;;5.13;2.87;;;19.90;49.80;;;;;;5112911;28;20626;-53
2021/05/20 12:14:29;;;;;;;3.40;2.77;;;20.00;49.10;;;;;;5118349;27;20679;-53
2021/05/20 12:17:16;;;;;;;1.67;1.57;;;20.10;48.60;;;;;;5091443;28;20763;-53
2021/05/20 12:19:46;;;;;;;2.30;1.63;;;20.00;46.10;;;;;;5091716;28;20631;-53
2021/05/20 12:22:20;;;;;;;1.77;1.50;;;19.60;45.20;;;;;;5092980;28;21074;-54
2021/05/20 12:24:48;;;;;;;1.97;1.80;;;19.10;46.10;;;;;;5092015;28;20627;-53
2021/05/20 12:27:19;;;;;;;2.60;2.23;;;18.90;47.70;;;;;;5099405;28;20974;-52
2021/05/20 12:29:47;;;;;;;2.43;2.23;;;18.80;48.70;;;;;;5113042;28;20971;-51
2021/05/20 12:32:29;;;;;;;2.00;1.90;;;18.80;48.80;;;;;;5111454;28;20664;-51
2021/05/20 12:35:20;;;;;;;2.93;2.53;;;18.90;49.40;;;;;;5110963;28;20775;-53
2021/05/20 12:37:59;;;;;;;2.27;2.07;;;19.00;49.80;;;;;;5107630;28;20692;-50
2021/05/20 12:40:27;;;;;;;2.43;2.23;;;19.30;49.70;;;;;;5110794;28;20756;-51
2021/05/20 12:43:19;;;;;;;2.30;2.10;;;19.70;48.70;;;;;;5111143;28;21006;-50
2021/05/20 12:45:51;;;;;;;2.30;2.10;;;20.10;49.50;;;;;;5095624;28;20659;-51
2021/05/20 12:48:32;;;;;;;2.10;1.90;;;20.40;49.20;;;;;;5110538;28;20623;-50
2021/05/20 12:51:00;;;;;;;1.70;1.60;;;20.40;48.80;;;;;;5110650;28;20615;-52
2021/05/20 12:53:32;;;;;;;1.63;1.50;;;20.40;48.60;;;;;;5110414;28;20615;-52
2021/05/20 12:56:00;;;;;;;1.80;1.70;;;20.70;49.50;;;;;;5110113;27;20797;-52